Time;durP1;ratioP1;P1;durP2;ratioP2;P2;SDS_P1;SDS_P2;PMS_P1;PMS_P2;Temp;Humidity;BMP_temperature;BMP_pressure;BME280_temperature;BME280_humidity;BME280_pressure;Samples;Min_cycle;Max_cycle;Signal;HPM_P1;HPM_P2
2022/05/08 00:00:32;;;;;;;4.17;3.20;;;14.30;99.90;;;;;;5053770;28;20253;-71
2022/05/08 00:02:58;;;;;;;5.00;3.40;;;14.30;99.90;;;;;;5053805;28;20167;-72
2022/05/08 00:05:25;;;;;;;5.30;4.00;;;14.30;99.90;;;;;;5053493;28;20163;-72
2022/05/08 00:07:50;;;;;;;3.73;3.40;;;14.20;99.90;;;;;;5053738;28;20623;-72
2022/05/08 00:10:16;;;;;;;4.33;3.17;;;14.30;99.90;;;;;;5053617;28;20496;-71
2022/05/08 00:12:42;;;;;;;4.30;3.67;;;14.20;99.90;;;;;;5053479;28;20206;-72
2022/05/08 00:15:08;;;;;;;6.60;3.27;;;14.20;99.90;;;;;;5053410;28;20405;-72
2022/05/08 00:17:36;;;;;;;3.20;2.90;;;14.20;99.90;;;;;;5053277;28;20226;-72
2022/05/08 00:20:04;;;;;;;3.47;2.60;;;14.20;99.90;;;;;;5053251;28;20254;-72
2022/05/08 00:22:30;;;;;;;5.20;3.63;;;14.20;99.90;;;;;;5053209;28;20444;-72
2022/05/08 00:24:55;;;;;;;2.90;2.53;;;14.20;99.90;;;;;;5053241;28;20426;-72
2022/05/08 00:27:20;;;;;;;3.93;3.50;;;14.20;99.90;;;;;;5053272;28;20628;-72
2022/05/08 00:29:46;;;;;;;3.40;2.43;;;14.20;99.90;;;;;;5053176;28;20175;-72
2022/05/08 00:32:11;;;;;;;3.23;2.60;;;14.20;99.90;;;;;;5053136;28;20171;-72
2022/05/08 00:34:37;;;;;;;3.27;2.97;;;14.20;99.90;;;;;;5052989;28;20203;-74
2022/05/08 00:37:03;;;;;;;3.30;3.00;;;14.20;99.90;;;;;;5053017;28;20248;-71
2022/05/08 00:39:28;;;;;;;3.20;2.90;;;14.20;99.90;;;;;;5053500;28;20629;-72
2022/05/08 00:41:54;;;;;;;3.27;2.80;;;14.20;99.90;;;;;;5053102;28;20445;-73
2022/05/08 00:44:19;;;;;;;3.53;2.93;;;14.20;99.90;;;;;;5052973;28;20583;-73
2022/05/08 00:46:45;;;;;;;2.93;2.23;;;14.10;99.90;;;;;;5052801;28;20279;-72
2022/05/08 00:49:11;;;;;;;3.73;2.50;;;14.10;99.90;;;;;;5052716;28;20182;-73
2022/05/08 00:51:37;;;;;;;4.40;2.50;;;14.10;99.90;;;;;;5052757;28;20240;-74
2022/05/08 00:54:03;;;;;;;3.20;2.83;;;14.10;99.90;;;;;;5053051;28;20557;-73
2022/05/08 00:56:29;;;;;;;2.20;1.83;;;14.00;99.90;;;;;;5052792;28;20856;-73
2022/05/08 00:58:55;;;;;;;2.20;2.00;;;14.10;99.90;;;;;;5052849;28;20494;-73
2022/05/08 01:01:21;;;;;;;2.50;2.00;;;14.10;99.90;;;;;;5052944;28;20258;-73
2022/05/08 01:03:47;;;;;;;2.40;1.77;;;14.00;99.90;;;;;;5052821;28;20406;-73
2022/05/08 01:06:15;;;;;;;1.90;1.70;;;14.00;99.90;;;;;;5052036;28;20429;-73
2022/05/08 01:08:50;;;;;;;2.00;1.83;;;13.90;99.90;;;;;;5052977;28;20409;-72
2022/05/08 01:11:17;;;;;;;2.20;1.40;;;13.90;99.90;;;;;;5052777;28;20413;-73
2022/05/08 01:13:43;;;;;;;1.50;1.40;;;13.90;99.90;;;;;;5053516;28;20406;-73
2022/05/08 01:16:20;;;;;;;2.40;1.43;;;13.90;99.90;;;;;;5052834;28;20425;-73
2022/05/08 01:18:48;;;;;;;2.43;2.17;;;13.80;99.90;;;;;;5052084;28;20686;-73
2022/05/08 01:21:16;;;;;;;1.63;1.53;;;13.60;99.90;;;;;;5052658;28;20402;-72
2022/05/08 01:23:43;;;;;;;1.93;1.60;;;13.50;99.90;;;;;;5052358;28;20922;-73
2022/05/08 01:26:09;;;;;;;1.80;1.57;;;13.40;99.90;;;;;;5052282;28;20449;-73
2022/05/08 01:28:35;;;;;;;2.30;1.63;;;13.10;99.90;;;;;;5052206;28;20416;-71
2022/05/08 01:31:01;;;;;;;2.27;1.73;;;12.90;99.90;;;;;;5052167;28;20167;-71
2022/05/08 01:33:28;;;;;;;1.93;1.63;;;12.80;99.90;;;;;;5052171;28;20806;-72
2022/05/08 01:35:53;;;;;;;2.70;1.50;;;12.60;99.90;;;;;;5051952;28;20680;-72
2022/05/08 01:38:21;;;;;;;2.53;1.70;;;12.50;99.90;;;;;;5051587;28;20441;-72
2022/05/08 01:40:48;;;;;;;2.07;1.87;;;12.40;99.90;;;;;;5051401;28;20225;-72
2022/05/08 01:43:13;;;;;;;3.43;1.83;;;12.40;99.90;;;;;;5051751;28;20433;-71
2022/05/08 01:45:39;;;;;;;1.60;1.50;;;12.30;99.90;;;;;;5051541;28;20907;-72
2022/05/08 01:48:26;;;;;;;1.50;1.40;;;12.20;99.90;;;;;;5051758;28;20243;-72
2022/05/08 01:51:02;;;;;;;2.30;2.10;;;12.20;99.90;;;;;;5051759;28;20409;-72
2022/05/08 01:53:31;;;;;;;3.80;1.80;;;12.20;99.90;;;;;;5051836;28;20417;-71
2022/05/08 01:55:57;;;;;;;2.93;2.00;;;12.10;99.90;;;;;;5051667;28;20811;-71
2022/05/08 01:58:24;;;;;;;2.37;2.17;;;12.10;99.90;;;;;;5051899;28;20448;-71
2022/05/08 02:00:51;;;;;;;2.00;1.90;;;12.10;99.90;;;;;;5051947;28;20189;-72
2022/05/08 02:03:18;;;;;;;3.40;2.30;;;12.20;99.90;;;;;;5051973;28;20921;-72
2022/05/08 02:05:44;;;;;;;2.80;2.20;;;12.20;99.90;;;;;;5051719;28;20478;-72
2022/05/08 02:08:11;;;;;;;1.37;1.27;;;12.30;99.90;;;;;;5051970;28;20405;-72
2022/05/08 02:10:36;;;;;;;1.90;1.80;;;12.30;99.90;;;;;;5051832;28;20167;-71
2022/05/08 02:13:03;;;;;;;1.87;1.70;;;12.30;99.90;;;;;;5051602;28;20413;-72
2022/05/08 02:15:31;;;;;;;2.27;2.07;;;12.30;99.90;;;;;;5051477;28;20194;-71
2022/05/08 02:18:01;;;;;;;3.10;2.63;;;12.30;99.90;;;;;;5051196;28;20514;-71
2022/05/08 02:20:27;;;;;;;3.43;1.83;;;12.30;99.90;;;;;;5051506;28;20404;-71
2022/05/08 02:22:53;;;;;;;2.23;2.03;;;12.40;99.90;;;;;;5051450;28;20405;-71
2022/05/08 02:25:19;;;;;;;2.33;2.13;;;12.40;99.90;;;;;;5051632;28;20903;-71
2022/05/08 02:27:49;;;;;;;2.00;1.80;;;12.40;99.90;;;;;;5051429;28;20405;-70
2022/05/08 02:30:16;;;;;;;2.00;1.90;;;12.40;99.90;;;;;;5051326;28;20172;-71
2022/05/08 02:32:41;;;;;;;2.00;1.90;;;12.50;99.90;;;;;;5051070;28;20463;-71
2022/05/08 02:35:09;;;;;;;2.87;2.40;;;12.50;99.90;;;;;;5051403;28;20422;-71
2022/05/08 02:37:36;;;;;;;5.13;1.90;;;12.50;99.90;;;;;;5051499;28;20179;-71
2022/05/08 02:40:01;;;;;;;2.73;1.83;;;12.50;99.90;;;;;;5051507;28;20904;-71
2022/05/08 02:42:27;;;;;;;3.47;2.10;;;12.50;99.90;;;;;;5051161;28;20408;-71
2022/05/08 02:44:53;;;;;;;2.20;2.07;;;12.50;99.90;;;;;;5051258;28;20216;-71
2022/05/08 02:47:18;;;;;;;2.93;1.90;;;12.50;99.90;;;;;;5051005;28;20546;-71
2022/05/08 02:49:43;;;;;;;3.20;2.90;;;12.50;99.90;;;;;;5051368;28;20171;-71
2022/05/08 02:52:09;;;;;;;2.23;1.90;;;12.50;99.90;;;;;;5051109;28;20170;-70
2022/05/08 02:54:34;;;;;;;2.60;2.40;;;12.50;99.90;;;;;;5051100;28;20707;-71
2022/05/08 02:59:44;;;;;;;2.73;2.53;;;12.50;99.90;;;;;;5050928;28;20221;-70
2022/05/08 03:02:10;;;;;;;2.43;2.23;;;12.50;99.90;;;;;;5050997;28;20405;-71
2022/05/08 03:04:35;;;;;;;2.27;2.07;;;12.50;99.90;;;;;;5050953;28;20205;-71
2022/05/08 03:07:02;;;;;;;3.33;2.23;;;12.60;99.90;;;;;;5050964;28;20195;-71
2022/05/08 03:09:27;;;;;;;2.33;2.10;;;12.60;99.90;;;;;;5051003;28;20221;-71
2022/05/08 03:11:53;;;;;;;2.27;2.03;;;12.60;99.90;;;;;;5050945;28;20414;-71
2022/05/08 03:14:20;;;;;;;2.63;2.43;;;12.60;99.90;;;;;;5050844;28;20178;-71
2022/05/08 03:16:46;;;;;;;2.77;2.43;;;12.60;99.90;;;;;;5050791;28;20665;-71
2022/05/08 03:19:13;;;;;;;2.47;2.27;;;12.60;99.90;;;;;;5050872;28;20467;-71
2022/05/08 03:21:40;;;;;;;5.43;2.30;;;12.70;99.90;;;;;;5050845;28;20499;-71
2022/05/08 03:24:07;;;;;;;3.00;1.97;;;12.60;99.90;;;;;;5050908;28;20414;-71
2022/05/08 03:26:32;;;;;;;2.57;2.37;;;12.60;99.90;;;;;;5050710;28;20786;-71
2022/05/08 03:28:58;;;;;;;2.27;1.83;;;12.70;99.90;;;;;;5052603;28;20411;-71
2022/05/08 03:31:23;;;;;;;2.60;2.40;;;12.70;99.90;;;;;;5054439;28;20668;-71
2022/05/08 03:33:49;;;;;;;2.70;2.37;;;12.60;99.90;;;;;;5054400;28;20661;-71
2022/05/08 03:36:15;;;;;;;2.37;2.17;;;12.60;99.90;;;;;;5054344;28;20187;-71
2022/05/08 03:38:45;;;;;;;2.13;1.93;;;12.60;99.90;;;;;;5054419;28;20452;-71
2022/05/08 03:41:17;;;;;;;3.27;2.57;;;12.60;99.90;;;;;;5054543;28;20272;-71
2022/05/08 03:43:45;;;;;;;2.87;2.67;;;12.60;99.90;;;;;;5054642;28;20921;-71
2022/05/08 03:46:10;;;;;;;3.03;2.43;;;12.70;99.90;;;;;;5054469;28;20585;-72
2022/05/08 03:48:36;;;;;;;2.87;2.53;;;12.60;99.90;;;;;;5054331;28;20428;-71
2022/05/08 03:51:03;;;;;;;2.50;2.20;;;12.60;99.90;;;;;;5054118;28;20171;-71
2022/05/08 03:53:28;;;;;;;2.53;2.33;;;12.50;99.90;;;;;;5054274;28;20981;-71
2022/05/08 03:55:54;;;;;;;2.97;2.67;;;12.50;99.90;;;;;;5053646;28;20445;-72
2022/05/08 03:58:19;;;;;;;2.63;2.43;;;12.50;99.90;;;;;;5053865;28;20206;-71
2022/05/08 04:00:44;;;;;;;2.13;1.93;;;12.60;99.90;;;;;;5054012;28;20160;-72
2022/05/08 04:03:10;;;;;;;2.60;1.87;;;12.50;99.90;;;;;;5053956;28;20244;-71
2022/05/08 04:05:35;;;;;;;4.63;2.10;;;12.60;99.90;;;;;;5053683;28;20183;-71
2022/05/08 04:08:01;;;;;;;2.03;1.80;;;12.60;99.90;;;;;;5053819;28;20186;-71
2022/05/08 04:10:26;;;;;;;3.70;3.33;;;12.50;99.90;;;;;;5053716;28;20216;-71
2022/05/08 04:12:52;;;;;;;4.07;2.93;;;12.40;99.90;;;;;;5053689;28;20203;-70
2022/05/08 04:18:02;;;;;;;3.30;2.70;;;12.40;99.90;;;;;;5053608;28;20201;-71
2022/05/08 04:20:27;;;;;;;2.20;2.00;;;12.40;99.90;;;;;;5053765;28;20398;-72
2022/05/08 04:25:37;;;;;;;3.17;2.03;;;12.30;99.90;;;;;;5053602;28;20190;-70
2022/05/08 04:28:03;;;;;;;4.40;2.20;;;12.30;99.90;;;;;;5053360;28;20911;-70
2022/05/08 04:30:28;;;;;;;2.40;2.20;;;12.30;99.90;;;;;;5053871;28;20203;-71
2022/05/08 04:32:54;;;;;;;3.00;2.17;;;12.20;99.90;;;;;;5053279;28;20489;-70
2022/05/08 04:35:19;;;;;;;2.50;2.30;;;12.30;99.90;;;;;;5053219;28;20175;-71
2022/05/08 04:37:44;;;;;;;1.73;1.63;;;12.40;99.90;;;;;;5053050;28;20174;-71
2022/05/08 04:40:11;;;;;;;1.60;1.40;;;12.30;99.90;;;;;;5051992;28;20675;-72
2022/05/08 04:42:36;;;;;;;2.40;1.80;;;12.20;99.90;;;;;;5053126;28;20190;-71
2022/05/08 04:45:02;;;;;;;5.10;2.37;;;12.30;99.90;;;;;;5052890;28;20491;-72
2022/05/08 04:47:28;;;;;;;5.20;2.37;;;12.40;99.90;;;;;;5052955;28;20178;-71
2022/05/08 04:49:54;;;;;;;1.57;1.47;;;12.50;99.90;;;;;;5052857;28;20171;-71
2022/05/08 04:52:19;;;;;;;2.50;1.50;;;12.30;99.90;;;;;;5052740;28;20171;-71
2022/05/08 04:54:45;;;;;;;1.70;1.43;;;12.20;99.90;;;;;;5052738;28;20175;-71
2022/05/08 04:57:10;;;;;;;3.63;1.60;;;12.20;99.90;;;;;;5034803;28;20248;-72
2022/05/08 04:59:35;;;;;;;2.10;1.90;;;12.10;99.90;;;;;;5052742;28;20606;-71
2022/05/08 05:02:02;;;;;;;3.07;1.90;;;12.20;99.90;;;;;;5052643;28;20246;-71
2022/05/08 05:04:28;;;;;;;3.20;1.67;;;12.30;99.90;;;;;;5052720;28;20166;-71
2022/05/08 05:06:53;;;;;;;1.43;1.20;;;12.30;99.90;;;;;;5052893;28;20783;-71
2022/05/08 05:09:19;;;;;;;2.13;1.80;;;12.30;99.90;;;;;;5052787;28;20406;-72
2022/05/08 05:11:44;;;;;;;11.13;2.17;;;12.80;99.90;;;;;;5052755;28;20601;-71
2022/05/08 05:14:10;;;;;;;2.33;1.70;;;13.30;99.90;;;;;;5052509;28;20233;-71
2022/05/08 05:16:35;;;;;;;2.47;1.73;;;13.40;99.90;;;;;;5052408;28;20695;-71
2022/05/08 05:19:01;;;;;;;1.80;1.70;;;13.60;99.90;;;;;;5052495;28;20572;-71
2022/05/08 05:21:26;;;;;;;2.33;1.43;;;14.20;99.90;;;;;;5052468;28;20164;-70
2022/05/08 05:23:52;;;;;;;2.13;1.83;;;14.20;99.90;;;;;;5052902;28;20181;-72
2022/05/08 05:26:17;;;;;;;3.83;1.40;;;13.80;99.90;;;;;;5052514;28;20212;-70
2022/05/08 05:28:44;;;;;;;2.17;1.70;;;14.30;99.90;;;;;;5052686;28;20186;-70
2022/05/08 05:31:12;;;;;;;3.37;1.40;;;14.80;99.90;;;;;;5052598;28;20695;-71
2022/05/08 05:33:37;;;;;;;3.93;1.23;;;15.10;99.90;;;;;;5052511;28;20455;-72
2022/05/08 05:36:03;;;;;;;7.47;1.20;;;15.40;99.90;;;;;;5052353;28;20436;-71
2022/05/08 05:38:28;;;;;;;2.10;1.33;;;15.60;99.90;;;;;;5052427;28;20210;-70
2022/05/08 05:40:53;;;;;;;4.07;1.83;;;15.30;99.90;;;;;;5052449;28;20209;-71
2022/05/08 05:43:19;;;;;;;1.70;1.30;;;15.50;99.90;;;;;;5052394;28;20171;-74
2022/05/08 05:45:44;;;;;;;2.73;1.60;;;16.20;99.90;;;;;;5052423;28;20613;-71
2022/05/08 05:48:10;;;;;;;2.30;1.20;;;16.60;99.90;;;;;;5052432;28;20175;-71
2022/05/08 05:50:35;;;;;;;1.93;1.47;;;16.30;99.90;;;;;;5052305;28;20168;-71
2022/05/08 05:53:01;;;;;;;1.30;1.20;;;15.80;99.90;;;;;;5052006;28;20231;-70
2022/05/08 05:55:26;;;;;;;3.40;1.37;;;16.30;99.90;;;;;;5052129;28;20252;-71
2022/05/08 05:57:52;;;;;;;4.43;1.50;;;17.30;99.90;;;;;;5072511;23;20692;-67
2022/05/08 06:00:19;;;;;;;2.47;1.53;;;17.60;99.90;;;;;;5050075;28;20176;-66
2022/05/08 06:02:47;;;;;;;1.93;1.60;;;17.50;99.90;;;;;;5051530;28;20170;-67
2022/05/08 06:05:14;;;;;;;6.10;1.60;;;17.50;99.90;;;;;;5050865;28;20431;-65
2022/05/08 06:07:42;;;;;;;3.13;1.90;;;18.30;99.90;;;;;;5050692;28;20408;-66
2022/05/08 06:10:09;;;;;;;3.03;1.47;;;17.70;99.90;;;;;;5050886;28;20400;-67
2022/05/08 06:12:35;;;;;;;1.37;1.27;;;18.50;99.90;;;;;;5050497;28;20401;-67
2022/05/08 06:15:01;;;;;;;4.20;1.20;;;18.20;99.90;;;;;;5050791;28;20419;-66
2022/05/08 06:17:27;;;;;;;2.50;1.20;;;19.10;99.90;;;;;;5050876;28;20419;-66
2022/05/08 06:19:52;;;;;;;4.20;1.43;;;19.40;99.90;;;;;;5050764;28;20285;-66
2022/05/08 06:22:18;;;;;;;2.97;1.70;;;18.80;99.90;;;;;;5049942;28;20806;-67
2022/05/08 06:24:44;;;;;;;1.27;1.13;;;19.40;99.90;;;;;;5050814;28;20171;-66
2022/05/08 06:27:10;;;;;;;2.93;1.30;;;19.30;99.90;;;;;;5050700;28;20427;-66
2022/05/08 06:29:35;;;;;;;2.30;1.80;;;19.40;99.90;;;;;;5051406;28;20180;-67
2022/05/08 06:32:01;;;;;;;1.93;1.40;;;19.40;99.90;;;;;;5050875;28;20472;-66
2022/05/08 06:34:27;;;;;;;2.40;1.67;;;18.50;99.90;;;;;;5050693;28;20162;-67
2022/05/08 06:36:53;;;;;;;1.53;1.17;;;18.70;99.90;;;;;;5051033;28;20561;-66
2022/05/08 06:39:19;;;;;;;2.37;1.23;;;19.90;99.90;;;;;;5050935;28;20285;-67
2022/05/08 06:41:45;;;;;;;1.83;1.57;;;19.90;99.60;;;;;;5050943;28;20848;-65
2022/05/08 06:44:10;;;;;;;4.10;1.43;;;19.30;99.80;;;;;;5050834;28;20187;-65
2022/05/08 06:46:36;;;;;;;5.00;1.80;;;20.00;99.60;;;;;;5032858;28;20244;-66
2022/05/08 06:49:09;;;;;;;1.83;1.23;;;20.10;99.70;;;;;;5050716;28;20283;-67
2022/05/08 06:51:34;;;;;;;1.83;1.20;;;20.20;97.60;;;;;;5050825;28;20587;-66
2022/05/08 06:54:00;;;;;;;4.80;1.80;;;19.50;98.40;;;;;;5050978;28;20529;-66
2022/05/08 06:56:26;;;;;;;1.77;1.20;;;20.10;99.70;;;;;;5050393;28;20205;-66
2022/05/08 07:01:42;;;;;;;2.93;1.40;;;20.70;99.30;;;;;;5051209;28;20179;-66
2022/05/08 07:04:09;;;;;;;3.43;1.43;;;20.40;98.10;;;;;;5053168;28;20818;-68
2022/05/08 07:06:36;;;;;;;3.30;2.17;;;21.50;97.70;;;;;;5054916;28;20428;-67
2022/05/08 07:09:03;;;;;;;2.40;1.30;;;22.40;96.60;;;;;;5054780;28;20416;-66
2022/05/08 07:11:30;;;;;;;2.80;1.63;;;20.90;96.60;;;;;;5054345;28;20988;-66
2022/05/08 07:13:56;;;;;;;2.03;1.40;;;20.70;97.50;;;;;;5054327;28;20726;-68
2022/05/08 07:16:22;;;;;;;2.83;1.60;;;21.90;95.60;;;;;;5054550;28;20427;-68
2022/05/08 07:18:47;;;;;;;2.97;1.50;;;20.40;95.60;;;;;;5054563;28;20235;-68
2022/05/08 07:21:12;;;;;;;3.27;1.47;;;20.50;97.60;;;;;;5054237;28;20190;-66
2022/05/08 07:23:38;;;;;;;2.33;1.47;;;21.40;96.80;;;;;;5054734;28;20158;-67
2022/05/08 07:26:03;;;;;;;2.00;1.57;;;22.70;94.80;;;;;;5054129;28;20241;-67
2022/05/08 07:28:29;;;;;;;7.00;1.57;;;21.20;96.30;;;;;;5054112;28;20179;-68
2022/05/08 07:30:55;;;;;;;3.20;1.73;;;22.20;94.90;;;;;;5054215;28;20231;-66
2022/05/08 07:33:20;;;;;;;3.73;1.87;;;22.00;94.80;;;;;;5054156;28;20650;-66
2022/05/08 07:38:31;;;;;;;4.00;1.30;;;21.70;94.20;;;;;;5054412;28;20293;-67
2022/05/08 07:40:57;;;;;;;2.73;1.80;;;23.00;93.10;;;;;;5054150;28;20483;-67
2022/05/08 07:43:23;;;;;;;2.60;1.30;;;23.00;92.70;;;;;;5054141;28;20769;-67
2022/05/08 07:45:48;;;;;;;7.83;1.70;;;22.60;92.90;;;;;;5054093;28;20470;-68
2022/05/08 07:48:16;;;;;;;1.90;1.53;;;22.50;92.80;;;;;;5054436;28;20673;-69
2022/05/08 07:50:41;;;;;;;3.80;1.90;;;23.20;90.40;;;;;;5054370;28;20213;-69
2022/05/08 07:53:07;;;;;;;4.57;1.50;;;22.80;90.90;;;;;;5054035;28;20797;-69
2022/05/08 07:55:32;;;;;;;4.17;2.40;;;23.00;89.90;;;;;;5053651;28;20175;-67
2022/05/08 07:57:58;;;;;;;2.97;1.40;;;22.10;90.30;;;;;;5053650;28;20210;-66
2022/05/08 08:00:23;;;;;;;3.03;1.43;;;21.80;89.00;;;;;;5053948;28;20167;-66
2022/05/08 08:02:49;;;;;;;3.80;2.00;;;21.10;90.50;;;;;;5053663;28;20185;-67
2022/05/08 08:05:14;;;;;;;1.43;1.30;;;21.20;91.80;;;;;;5053528;28;20184;-67
2022/05/08 08:07:40;;;;;;;2.83;1.47;;;22.30;90.70;;;;;;5053465;28;20193;-68
2022/05/08 08:10:06;;;;;;;2.20;1.70;;;23.10;88.80;;;;;;5053227;28;20174;-68
2022/05/08 08:12:32;;;;;;;1.73;1.50;;;22.80;90.00;;;;;;5053824;28;20177;-68
2022/05/08 08:14:59;;;;;;;1.83;1.60;;;21.10;90.70;;;;;;5053119;28;20411;-67
2022/05/08 08:17:25;;;;;;;2.20;1.70;;;20.90;92.90;;;;;;5053400;28;20436;-67
2022/05/08 08:19:51;;;;;;;2.87;1.70;;;21.30;92.50;;;;;;5053301;28;20455;-67
2022/05/08 08:22:16;;;;;;;2.03;1.53;;;20.00;93.60;;;;;;5053088;28;20412;-67
2022/05/08 08:24:42;;;;;;;3.20;2.10;;;20.80;94.60;;;;;;5053035;28;20235;-68
2022/05/08 08:27:07;;;;;;;1.87;1.50;;;21.00;93.00;;;;;;5053045;28;20201;-66
2022/05/08 08:29:33;;;;;;;3.97;1.60;;;21.30;94.70;;;;;;5054690;28;20173;-67
2022/05/08 08:31:59;;;;;;;3.33;1.80;;;20.90;93.50;;;;;;5054003;28;20545;-67
2022/05/08 08:34:26;;;;;;;2.13;1.50;;;21.20;94.80;;;;;;5052767;28;20485;-67
2022/05/08 08:36:52;;;;;;;3.93;1.90;;;21.80;92.80;;;;;;5052924;28;20280;-68
2022/05/08 08:39:18;;;;;;;3.53;2.17;;;21.40;93.70;;;;;;5052588;28;20452;-68
2022/05/08 08:41:53;;;;;;;1.97;1.60;;;21.20;92.80;;;;;;5052922;28;20823;-68
2022/05/08 08:49:52;;;;;;;6.33;1.33;;;21.70;93.10;;;;;;5052749;28;20407;-68
2022/05/08 08:52:26;;;;;;;5.40;2.17;;;22.20;91.90;;;;;;5052657;28;20409;-68
2022/05/08 08:54:51;;;;;;;3.50;1.40;;;22.50;91.20;;;;;;5034546;28;20171;-68
2022/05/08 08:57:16;;;;;;;1.80;1.50;;;22.30;92.00;;;;;;5052438;28;20464;-68
2022/05/08 08:59:42;;;;;;;1.70;1.17;;;22.20;91.60;;;;;;5052447;28;20297;-68
2022/05/08 09:02:26;;;;;;;3.57;1.30;;;21.40;92.10;;;;;;5052289;28;20216;-67
2022/05/08 09:04:51;;;;;;;2.20;1.43;;;22.10;90.80;;;;;;5052287;28;20163;-66
2022/05/08 09:07:40;;;;;;;3.70;1.40;;;20.50;91.80;;;;;;5052105;28;20487;-66
2022/05/08 09:10:22;;;;;;;3.07;1.50;;;21.00;91.60;;;;;;5052177;28;20245;-68
2022/05/08 09:12:53;;;;;;;2.60;1.73;;;22.80;90.00;;;;;;5052142;28;20466;-68
2022/05/08 09:15:33;;;;;;;1.33;1.07;;;22.00;89.80;;;;;;5052306;28;20404;-69
2022/05/08 09:18:07;;;;;;;1.83;1.30;;;21.70;91.00;;;;;;5052037;28;20536;-68
2022/05/08 09:20:43;;;;;;;5.80;1.67;;;22.40;88.40;;;;;;5052146;28;20413;-68
2022/05/08 09:23:20;;;;;;;4.13;1.67;;;23.30;89.30;;;;;;5051988;28;20413;-67
2022/05/08 09:25:57;;;;;;;2.23;1.10;;;22.50;90.00;;;;;;5051398;28;20445;-68
2022/05/08 09:28:34;;;;;;;1.80;1.43;;;22.90;89.90;;;;;;5052082;28;20555;-67
2022/05/08 09:31:10;;;;;;;1.63;1.20;;;21.00;90.20;;;;;;5051930;28;20409;-68
2022/05/08 09:33:38;;;;;;;2.30;1.33;;;22.00;88.80;;;;;;5052003;28;20779;-68
2022/05/08 09:36:08;;;;;;;1.67;1.00;;;22.40;88.60;;;;;;5051766;28;20773;-68
2022/05/08 09:38:49;;;;;;;1.10;1.00;;;21.90;85.90;;;;;;5051893;28;20449;-68
2022/05/08 09:41:22;;;;;;;2.00;1.30;;;22.80;86.90;;;;;;5051720;28;20882;-68
2022/05/08 09:43:48;;;;;;;1.67;1.20;;;22.80;83.50;;;;;;5051508;28;20412;-66
2022/05/08 09:46:15;;;;;;;2.00;1.60;;;20.80;89.10;;;;;;5051652;28;20413;-68
2022/05/08 09:48:40;;;;;;;1.70;1.27;;;22.00;86.80;;;;;;5052057;28;20420;-68
2022/05/08 09:51:08;;;;;;;3.00;1.60;;;22.10;86.70;;;;;;5051823;28;20405;-66
2022/05/08 09:53:36;;;;;;;3.83;1.53;;;23.50;83.00;;;;;;5051617;28;20228;-68
2022/05/08 09:56:04;;;;;;;1.93;0.97;;;22.90;83.80;;;;;;5051307;28;20467;-67
2022/05/08 09:58:30;;;;;;;1.30;1.10;;;23.10;83.60;;;;;;5051451;28;20540;-68
2022/05/08 10:00:56;;;;;;;3.07;1.47;;;22.20;84.40;;;;;;5051853;28;20436;-68
2022/05/08 10:03:22;;;;;;;3.03;1.53;;;22.00;84.70;;;;;;5051299;28;20223;-66
2022/05/08 10:05:49;;;;;;;4.27;1.20;;;21.20;85.70;;;;;;5051621;28;20402;-66
2022/05/08 10:08:21;;;;;;;4.37;1.70;;;21.30;82.40;;;;;;5051343;28;20401;-66
2022/05/08 10:13:58;;;;;;;1.93;1.30;;;20.60;84.00;;;;;;5051510;28;20466;-67
2022/05/08 10:16:48;;;;;;;1.53;1.00;;;20.80;85.30;;;;;;5051953;28;20521;-67
2022/05/08 10:19:20;;;;;;;1.60;1.23;;;20.70;80.50;;;;;;5052628;28;20453;-66
2022/05/08 10:21:59;;;;;;;3.03;2.43;;;21.10;81.00;;;;;;5051552;28;20411;-66
2022/05/08 10:24:34;;;;;;;1.60;1.20;;;20.90;82.10;;;;;;5052228;28;20418;-67
2022/05/08 10:27:14;;;;;;;1.43;1.13;;;20.80;84.00;;;;;;5051577;28;20790;-67
2022/05/08 10:29:49;;;;;;;1.47;1.37;;;20.60;79.90;;;;;;5051379;28;20469;-67
2022/05/08 10:32:48;;;;;;;3.53;1.50;;;20.10;85.00;;;;;;5051260;28;20464;-68
2022/05/08 10:35:23;;;;;;;1.23;1.10;;;20.70;83.20;;;;;;5051440;28;20438;-67
2022/05/08 10:38:12;;;;;;;3.43;1.90;;;20.70;81.20;;;;;;5052817;28;20571;-67
2022/05/08 10:40:38;;;;;;;2.93;1.20;;;20.30;81.40;;;;;;5045358;28;20499;-67
2022/05/08 10:43:12;;;;;;;2.60;1.13;;;20.40;83.30;;;;;;5055333;28;20544;-67
2022/05/08 10:45:41;;;;;;;1.67;1.20;;;20.10;78.90;;;;;;5055006;28;20160;-67
2022/05/08 10:48:07;;;;;;;1.23;1.13;;;19.80;83.20;;;;;;5037068;28;20444;-67
2022/05/08 10:50:34;;;;;;;2.93;1.90;;;20.40;82.30;;;;;;5054673;28;20651;-67
2022/05/08 10:52:59;;;;;;;1.40;1.13;;;19.60;76.90;;;;;;5036679;28;20421;-67
2022/05/08 10:55:26;;;;;;;1.43;1.20;;;19.60;80.50;;;;;;5055145;28;20496;-67
2022/05/08 10:57:53;;;;;;;1.13;1.03;;;19.70;79.20;;;;;;5055029;28;20260;-67
2022/05/08 11:00:29;;;;;;;1.63;1.10;;;20.30;77.70;;;;;;5055097;28;20409;-68
2022/05/08 11:02:57;;;;;;;1.70;1.20;;;20.20;80.20;;;;;;5054763;28;20430;-67
2022/05/08 11:05:31;;;;;;;3.60;1.33;;;20.40;75.20;;;;;;5055074;28;20433;-67
2022/05/08 11:08:10;;;;;;;1.30;1.20;;;20.10;76.30;;;;;;5054656;28;20429;-68
2022/05/08 11:10:40;;;;;;;3.20;1.33;;;19.90;77.00;;;;;;5054933;28;20435;-68
2022/05/08 11:13:12;;;;;;;2.40;1.13;;;20.60;78.10;;;;;;5054875;28;20467;-66
2022/05/08 11:15:45;;;;;;;1.37;1.27;;;20.10;75.80;;;;;;5054112;28;20410;-67
2022/05/08 11:18:22;;;;;;;2.87;1.30;;;19.90;75.40;;;;;;5054178;28;20461;-67
2022/05/08 11:21:02;;;;;;;3.13;1.53;;;20.10;75.80;;;;;;5054500;28;20469;-67
2022/05/08 11:23:33;;;;;;;2.40;1.33;;;19.90;72.70;;;;;;5054213;28;20405;-67
2022/05/08 11:26:06;;;;;;;2.40;1.30;;;19.20;74.00;;;;;;5054009;28;20397;-66
2022/05/08 11:28:33;;;;;;;2.93;1.27;;;19.40;74.00;;;;;;5054350;28;20766;-67
2022/05/08 11:30:59;;;;;;;3.20;1.40;;;19.30;73.80;;;;;;5054528;28;20489;-67
2022/05/08 11:36:25;;;;;;;2.10;1.03;;;18.90;73.40;;;;;;5054178;28;20430;-68
2022/05/08 11:38:54;;;;;;;3.83;1.10;;;19.30;72.90;;;;;;5054034;28;20460;-67
2022/05/08 11:41:31;;;;;;;2.10;1.00;;;19.70;75.60;;;;;;5054021;28;20528;-67
2022/05/08 11:43:59;;;;;;;4.90;1.10;;;19.90;71.00;;;;;;5054054;28;20481;-67
2022/05/08 11:46:38;;;;;;;1.13;1.00;;;19.60;71.60;;;;;;5053846;28;21006;-67
2022/05/08 11:49:17;;;;;;;1.50;1.40;;;19.70;72.00;;;;;;5053536;28;20397;-67
2022/05/08 11:51:44;;;;;;;1.90;1.77;;;19.70;72.00;;;;;;5053985;28;20426;-68
2022/05/08 11:54:32;;;;;;;1.77;1.50;;;20.00;71.40;;;;;;5053865;28;20519;-68
2022/05/08 11:57:16;;;;;;;1.70;0.90;;;19.90;69.20;;;;;;5075334;22;20483;-70
2022/05/08 11:59:44;;;;;;;2.10;1.13;;;19.30;67.00;;;;;;5054320;28;20480;-70
2022/05/08 12:02:11;;;;;;;1.23;0.90;;;19.50;71.50;;;;;;5036227;28;20428;-69
2022/05/08 12:04:36;;;;;;;2.90;1.30;;;19.90;69.80;;;;;;5054106;28;20435;-69
2022/05/08 12:07:11;;;;;;;1.37;1.20;;;19.80;67.10;;;;;;5054008;28;20511;-69
2022/05/08 12:09:43;;;;;;;1.33;1.03;;;19.90;68.40;;;;;;5053975;28;20171;-69
2022/05/08 12:12:27;;;;;;;2.13;1.40;;;19.60;65.80;;;;;;5054344;28;20414;-69
2022/05/08 12:14:53;;;;;;;2.10;1.73;;;19.50;67.30;;;;;;5053981;28;20410;-69
2022/05/08 12:17:19;;;;;;;1.80;1.20;;;19.70;69.40;;;;;;5054011;28;20421;-69
2022/05/08 12:19:53;;;;;;;2.90;1.40;;;19.80;65.80;;;;;;5053665;28;20453;-69
2022/05/08 12:22:27;;;;;;;1.20;1.10;;;20.20;66.10;;;;;;5053555;28;20884;-69
2022/05/08 12:24:54;;;;;;;2.90;1.30;;;20.00;63.80;;;;;;5054653;28;20398;-69
2022/05/08 12:27:20;;;;;;;2.20;1.20;;;19.90;63.20;;;;;;5054753;28;20428;-69
2022/05/08 12:29:46;;;;;;;2.70;1.10;;;19.80;63.40;;;;;;5053552;28;20411;-69
2022/05/08 12:32:12;;;;;;;1.57;1.10;;;19.70;61.20;;;;;;5053455;28;20463;-69
2022/05/08 12:34:40;;;;;;;1.37;1.10;;;20.00;67.10;;;;;;5053227;28;20179;-69
2022/05/08 12:37:06;;;;;;;1.87;1.40;;;19.80;60.00;;;;;;5053503;28;20487;-69
2022/05/08 12:39:31;;;;;;;6.40;1.50;;;19.50;59.20;;;;;;5035527;28;20979;-71
2022/05/08 12:41:57;;;;;;;1.20;1.00;;;19.60;60.20;;;;;;5053422;28;20183;-70
2022/05/08 12:44:22;;;;;;;2.20;1.20;;;19.50;59.20;;;;;;5053496;28;20225;-70
2022/05/08 12:46:48;;;;;;;1.37;1.27;;;19.30;58.30;;;;;;5053530;28;20192;-69
2022/05/08 12:49:15;;;;;;;1.50;0.90;;;19.10;60.50;;;;;;5035563;28;20643;-69
2022/05/08 12:51:42;;;;;;;2.93;1.23;;;19.60;60.50;;;;;;5053764;28;20411;-70
2022/05/08 12:54:08;;;;;;;1.80;1.10;;;19.70;59.50;;;;;;5055670;28;20409;-69
2022/05/08 12:56:34;;;;;;;1.83;1.10;;;19.80;58.70;;;;;;5053204;28;20444;-71
2022/05/08 13:01:46;;;;;;;1.70;1.00;;;20.00;57.10;;;;;;5052327;28;20199;-71
2022/05/08 13:04:12;;;;;;;3.77;1.40;;;19.70;55.90;;;;;;5053236;28;20916;-69
2022/05/08 13:06:37;;;;;;;2.10;0.90;;;19.70;54.40;;;;;;5053115;28;20413;-69
2022/05/08 13:09:05;;;;;;;1.70;0.97;;;19.80;53.10;;;;;;5053013;28;20174;-69
2022/05/08 13:11:31;;;;;;;2.33;1.13;;;19.80;52.10;;;;;;5052941;28;20183;-69
2022/05/08 13:13:57;;;;;;;2.17;1.47;;;20.00;53.20;;;;;;5052871;28;20413;-69
2022/05/08 13:16:23;;;;;;;3.00;1.00;;;20.10;51.80;;;;;;5052681;28;20169;-70
2022/05/08 13:18:49;;;;;;;2.07;1.17;;;20.00;54.10;;;;;;5052809;28;20456;-70